Observations for Trim Patrick St
| Time | AQI | Temp °C | Hum % | Pres Pa | CO μg/m³ | H₂S μg/m³ | NO μg/m³ | NO₂ μg/m³ | O₃ μg/m³ | SO₂ μg/m³ | PM1 μg/m³ | PM2.5 μg/m³ | PM10 μg/m³ |
|---|---|---|---|---|---|---|---|---|---|---|---|---|---|
| Monday 3 August 2026 | |||||||||||||
| 13:01 | 2 | 30.2 | 31 | 69,199 | 0 | 0 | 1.27 | 14.12 | 107.14 | 9.43 | 3.71 | 10.8 | 11.88 |
| 13:00 | 2 | 30.3 | 33 | 69,204 | 0 | 0 | 1.37 | 20.88 | 137.74 | 11.03 | 3.71 | 9.9 | 10.89 |
| 12:59 | 2 | 30.3 | 35 | 69,210 | 0 | 0 | 1.49 | 20.05 | 161.12 | 10.82 | 3.71 | 9.77 | 10.75 |
| 12:58 | 2 | 30.3 | 32 | 69,195 | 0 | 0 | 1.3 | 12.92 | 124.55 | 10.81 | 3.71 | 9.96 | 10.96 |
| 12:57 | 2 | 30.3 | 33 | 69,202 | 0 | 0 | 1.37 | 19.9 | 176 | 9.97 | 3.71 | 10.69 | 11.76 |
| 12:56 | 2 | 30.3 | 34 | 69,212 | 0 | 0 | 1.43 | 11.04 | 106.24 | 11.98 | 3.71 | 9.85 | 10.83 |
| 12:55 | 2 | 30.3 | 34 | 69,195 | 0 | 0 | 1.43 | 14.27 | 174.43 | 12.14 | 3.71 | 9.84 | 10.83 |
| 12:52 | 2 | 30.3 | 34 | 69,179 | 0 | 0 | 1.57 | 12.19 | 166.13 | 11.11 | 4.57 | 11.38 | 12.52 |
| 12:50 | 2 | 30.3 | 33 | 69,212 | 0 | 0 | 1.51 | 9.52 | 87.04 | 10.37 | 4.57 | 10.67 | 11.74 |
| 12:46 | 2 | 30.3 | 35 | 69,208 | 0 | 0 | 1.66 | 5.93 | 116.27 | 12.08 | 2.86 | 8.92 | 9.81 |
| 12:45 | 2 | 30.3 | 35 | 69,218 | 0 | 0 | 1.62 | 2.87 | 101.88 | 10.43 | 2.86 | 10.55 | 11.6 |
| 12:44 | 2 | 30.4 | 36 | 69,202 | 0 | 0 | 1.67 | 1.31 | 75.95 | 10.45 | 4.57 | 10.48 | 11.53 |
| 12:43 | 2 | 30.4 | 34 | 69,185 | 0 | 0 | 1.54 | 0.58 | 75.81 | 10.06 | 3.71 | 10.63 | 11.69 |
| 12:42 | 2 | 30.4 | 37 | 69,187 | 0 | 0 | 1.78 | 4.87 | 114.84 | 12.45 | 2 | 8 | 8.81 |
| 12:41 | 2 | 30.4 | 32 | 69,187 | 0 | 0 | 1.36 | 12.66 | 144.38 | 10.57 | 2.86 | 9.12 | 10.03 |
| 12:40 | 2 | 30.4 | 35 | 69,189 | 0 | 0 | 1.57 | 0.71 | 74.73 | 10.46 | 3.71 | 10.55 | 11.6 |
| 12:39 | 2 | 30.4 | 34 | 69,220 | 0 | 0 | 1.58 | 12.62 | 186.27 | 11.18 | 4.57 | 11.37 | 12.51 |
| 12:38 | 2 | 30.5 | 36 | 69,202 | 0 | 0 | 1.65 | 5.21 | 84.28 | 12.75 | 3.71 | 9.71 | 10.68 |
| 12:37 | 2 | 30.4 | 33 | 69,210 | 0 | 0 | 1.44 | 8.83 | 152.97 | 10.6 | 3.71 | 10.7 | 11.77 |
| 12:36 | 2 | 30.5 | 34 | 69,191 | 0 | 0 | 1.56 | 0 | 75.49 | 12.19 | 4.57 | 10.65 | 11.71 |